Flight Track Log - Related Links

Times and Time Zones

All times are in EST time to prevent confusion due to time zone crossing. See the UAL4533 flight status page for this flight to view local times or setup timezone preferences in your user account.

Time Position Orientation Groundspeed Altitude Reporting Facility
EST Latitude Longitude Course Direction KTS MPH feet Rate Location/Type
Sat 08:19:24 AM 42.9167 -78.7500 75° East 157 181 1,800  Level Buffalo TRACON
Sat 08:20:24 AM 42.8833 -78.7833 216° Southwest 200 230 4,400 2,389 Climbing Buffalo TRACON
Sat 08:21:17 AM 42.8500 -78.7189 125° Southeast 256 295 6,300 2,684 Climbing Cleveland Center
Sat 08:22:00 AM 42.7706 -78.3607 98° East  Level Estimated
Sat 08:22:18 AM 42.8486 -78.6050 91° East 288 331 9,500  Level Cleveland Center
Sat 08:23:00 AM 42.7280 -78.2686 95° East  Level Estimated
Sat 08:23:19 AM 42.8478 -78.4858 91° East 320 368 10,900  Level Cleveland Center
Sat 08:24:00 AM 42.7483 -78.1632 75° East  Level FlightAware Approximate
Sat 08:24:20 AM 42.8453 -78.3472 91° East 366 421 12,500  Level Cleveland Center
Sat 08:25:21 AM 42.8428 -78.2017 91° East 386 444 14,300 1,756 Climbing Cleveland Center
Sat 08:26:23 AM 42.8403 -78.0517 91° East 394 453 16,100 1,659 Climbing Cleveland Center
Sat 08:27:24 AM 42.8372 -77.8978 91° East 403 464 17,700 1,672 Climbing Cleveland Center
Sat 08:28:25 AM 42.8342 -77.7422 91° East 405 466 19,500 1,770 Climbing Cleveland Center
Sat 08:29:26 AM 42.8319 -77.5836 91° East 410 472 21,300 1,756 Climbing Cleveland Center
Sat 08:30:28 AM 42.8289 -77.4244 91° East 414 476 23,100 1,659 Climbing Cleveland Center
Sat 08:31:29 AM 42.8256 -77.2661 92° East 416 479 24,700 934 Climbing Cleveland Center
Sat 08:32:30 AM 42.8236 -77.1008 91° East 427 491 25,000 151 Climbing Cleveland Center
Sat 08:33:28 AM 42.7958 -76.9347 103° East 451 519 25,000  Level Boston Center
Sat 08:34:28 AM 42.7333 -76.7919 121° Southeast 439 505 25,000  Level Boston Center
Sat 08:35:29 AM 42.6675 -76.6447 121° Southeast 449 517 25,000  Level Boston Center
Sat 08:36:30 AM 42.6000 -76.4950 121° Southeast 462 532 25,000  Level Boston Center
Sat 08:37:31 AM 42.5328 -76.3425 121° Southeast 470 541 25,000  Level Boston Center
Sat 08:38:32 AM 42.4653 -76.1931 121° Southeast 474 545 25,000 -252 Level Boston Center
Sat 08:39:30 AM 42.3975 -76.0414 121° Southeast 476 548 24,500 -744 Descending Boston Center
Sat 08:40:33 AM 42.3278 -75.8900 122° Southeast 478 550 23,500 -1,258 Descending Boston Center
Sat 08:41:34 AM 42.2478 -75.7153 122° Southeast 471 542 21,900 -1,636 Descending Boston Center
Sat 08:42:34 AM 42.1811 -75.5703 122° Southeast 460 529 20,200 -1,686 Descending Boston Center
Sat 08:43:35 AM 42.1164 -75.4292 122° Southeast 448 516 18,500 -1,073 Descending Boston Center
Sat 08:44:37 AM 42.0536 -75.2892 121° Southeast 440 506 18,000 -246 Descending Boston Center
Sat 08:45:37 AM 41.9931 -75.1314 117° Southeast 442 509 18,000  Level Boston Center
Sat 08:46:37 AM 41.9381 -74.9850 117° Southeast 440 506 18,000 -246 Level Boston Center
Sat 08:47:39 AM 41.8628 -74.8608 129° Southeast 440 506 17,500 -1,537 Descending Boston Center
Sat 08:48:38 AM 41.7725 -74.7647 142° Southeast 418 481 14,900 -2,430 Descending Boston Center
Sat 08:49:40 AM 41.6889 -74.6756 141° Southeast 389 448 12,600 -2,000 Descending Boston Center
Sat 08:50:41 AM 41.6064 -74.5886 142° Southeast 353 406 10,800 -1,475 Descending Boston Center
Sat 08:51:42 AM 41.5400 -74.5181 141° Southeast 310 357 9,600 -1,426 Descending Boston Center
Sat 08:52:43 AM 41.4786 -74.4547 142° Southeast 284 327 7,900 -1,230 Descending Boston Center
Sat 08:53:44 AM 41.4156 -74.4025 148° Southeast 273 314 7,100 -397 Descending Boston Center
Sat 08:54:44 AM 41.3442 -74.3889 172° South 277 319 7,100 -54 Level Boston Center
Sat 08:55:35 AM 41.2833 -74.3333 146° Southeast 288 331 7,000 -595 Descending New York TRACON
Sat 08:56:35 AM 41.2167 -74.3000 159° South 264 304 6,000 -1,000 Descending New York TRACON
Sat 08:57:29 AM 41.1500 -74.2500 151° Southeast 263 303 5,100 -526 Descending New York TRACON
Sat 08:58:29 AM 41.0833 -74.2167 159° South 272 313 5,000 -53 Descending New York TRACON
Sat 08:59:23 AM 41.0333 -74.1833 153° Southeast 267 307 5,000 -421 Level New York TRACON
Sat 09:00:23 AM 40.9667 -74.1333 150° Southeast 255 293 4,200 -684 Descending New York TRACON
Sat 09:01:17 AM 40.9000 -74.1000 159° South 257 296 3,700 -632 Descending New York TRACON
Sat 09:02:17 AM 40.8333 -74.0667 159° South 242 278 3,000 -850 Descending New York TRACON
Sat 09:03:17 AM 40.7833 -74.1000 207° Southwest 218 251 2,000 -947 Descending New York TRACON
Sat 09:04:11 AM 40.7500 -74.1333 217° Southwest 163 188 1,200 -887 Descending New York TRACON
Sat 09:05:12 AM 40.7167 -74.1500 201° Southwest 135 155 300 -885 Descending New York TRACON

Login

Don't have an account? Register now (free) for customized features, flight alerts, and more!